Historique des mesures à Cassis (13260), France
Quotidien Résumé Juin 20, 2021 Unités:  Métrique/US    US   Métrique
Quotidien Hebdomadaire Mensuel Annuel
  Maximum: Minimum: Moyenne:
Température: 91.2 °F /  32.9 °C 73.6 °F /  23.1 °C 81.5 °F /  27.5 °C
Point de rosée: 69.8 °F /  21 °C 61.2 °F /  16.2 °C 65.7 °F /  18.7 °C
Humidité: 75% 41% 60%
Vitesse du vent: 4.7mph /  7.6km/h - 1.7mph /  2.8km/h
Rafales: 9.4mph /  15.1km/h - -
Vent- - SSW
Pression: 29.9 in /  1013.2 hPa 29.8 in /  1009.0 hPa -
Précipitations: 0 in /  0.0 mm    
Historical Graphs
 
 
Mesures pour : Juin 20, 2021
Heure Temperature Point de rosée Pression Vent Vitesse du vent Rafales Humidité Pluie (par heure)
00:11 75.9 °F /  24.4 °C 64.6 °F /  18.1 °C 29.8in /  1009.9hPa Calm   0.9mph /  1.4km/h 68% 0in /  0.0mm
01:11 74.8 °F /  23.8 °C 63.1 °F /  17.3 °C 29.8in /  1009.9hPa Calm   3.6mph /  5.8km/h 67% 0in /  0.0mm
02:11 74.5 °F /  23.6 °C 63.7 °F /  17.6 °C 29.8in /  1010.0hPa Calm   3.1mph /  5km/h 69% 0in /  0.0mm
03:11 74.1 °F /  23.4 °C 63.3 °F /  17.4 °C 29.8in /  1009.5hPa NW 4.5mph /  7.2km/h 6.3mph /  10.1km/h 69% 0in /  0.0mm
04:11 74.3 °F /  23.5 °C 62.6 °F /  17 °C 29.8in /  1009.2hPa Calm   3.6mph /  5.8km/h 67% 0in /  0.0mm
05:11 73.9 °F /  23.3 °C 62.2 °F /  16.8 °C 29.8in /  1009.0hPa WNW 2.5mph /  4km/h 4mph /  6.5km/h 67% 0in /  0.0mm
06:11 73.8 °F /  23.2 °C 61.2 °F /  16.2 °C 29.8in /  1009.3hPa WNW 2.2mph /  3.6km/h 3.8mph /  6.1km/h 65% 0in /  0.0mm
07:11 73.6 °F /  23.1 °C 61.9 °F /  16.6 °C 29.8in /  1009.6hPa Calm     67% 0in /  0.0mm
08:11 90.3 °F /  32.4 °C 67.8 °F /  19.9 °C 29.8in /  1009.8hPa WNW 3.4mph /  5.4km/h 3.4mph /  5.4km/h 48% 0in /  0.0mm
09:11 80.2 °F /  26.8 °C 64.6 °F /  18.1 °C 29.8in /  1010.6hPa SSE 2.7mph /  4.3km/h 3.8mph /  6.1km/h 59% 0in /  0.0mm
10:11 78.1 °F /  25.6 °C 65.8 °F /  18.8 °C 29.9in /  1010.8hPa Calm   3.8mph /  6.1km/h 66% 0in /  0.0mm
11:11 84 °F /  28.9 °C 68.2 °F /  20.1 °C 29.9in /  1011.2hPa SSE 1.4mph /  2.2km/h 4.7mph /  7.6km/h 59% 0in /  0.0mm
12:11 87.4 °F /  30.8 °C 67.1 °F /  19.5 °C 29.9in /  1011.5hPa SE 4.7mph /  7.6km/h 5.6mph /  9km/h 51% 0in /  0.0mm
13:11 89.4 °F /  31.9 °C 65.8 °F /  18.8 °C 29.9in /  1011.2hPa ESE 2.7mph /  4.3km/h 4.7mph /  7.6km/h 46% 0in /  0.0mm
14:11 90.7 °F /  32.6 °C 64.4 °F /  18 °C 29.9in /  1010.9hPa SSW 3.6mph /  5.8km/h 9.2mph /  14.8km/h 42% 0in /  0.0mm
15:11 91.2 °F /  32.9 °C 64.2 °F /  17.9 °C 29.9in /  1011.1hPa South 3.6mph /  5.8km/h 9.4mph /  15.1km/h 41% 0in /  0.0mm
16:11 89.8 °F /  32.1 °C 66.7 °F /  19.3 °C 29.9in /  1011.1hPa South 2.5mph /  4km/h 4.7mph /  7.6km/h 47% 0in /  0.0mm
17:11 88.3 °F /  31.3 °C 67.5 °F /  19.7 °C 29.9in /  1011.0hPa SSE 3.6mph /  5.8km/h 6.5mph /  10.4km/h 50% 0in /  0.0mm
18:11 86.9 °F /  30.5 °C 69.8 °F /  21 °C 29.9in /  1011.3hPa South 1.1mph /  1.8km/h 4mph /  6.5km/h 57% 0in /  0.0mm
19:11 85.8 °F /  29.9 °C 69.3 °F /  20.7 °C 29.9in /  1011.0hPa Calm   4mph /  6.5km/h 58% 0in /  0.0mm
20:11 83.5 °F /  28.6 °C 69.1 °F /  20.6 °C 29.9in /  1011.5hPa Calm   3.1mph /  5km/h 62% 0in /  0.0mm
21:11 80.2 °F /  26.8 °C 68.4 °F /  20.2 °C 29.9in /  1011.8hPa Calm   0.7mph /  1.1km/h 67% 0in /  0.0mm
22:11 77.7 °F /  25.4 °C 68 °F /  20 °C 29.9in /  1013.1hPa Calm     72% 0in /  0.0mm
23:11 75.4 °F /  24.1 °C 66.9 °F /  19.4 °C 29.9in /  1013.2hPa WNW 3.6mph /  5.8km/h 6mph /  9.7km/h 75% 0in /  0.0mm
Observations météo à CASSIS
WU-History script by Weather Underground - 2 mb